sensor_id;sensor_type;location;lat;lon;timestamp;pressure;altitude;pressure_sealevel;temperature;humidity
55022;BME280;68328;35.990;-86.756;2023-06-14T00:02:13;98313.46;;;31.21;26.27
55022;BME280;68328;35.990;-86.756;2023-06-14T00:04:38;98315.61;;;30.96;26.69
55022;BME280;68328;35.990;-86.756;2023-06-14T00:07:04;98315.07;;;30.92;27.07
55022;BME280;68328;35.990;-86.756;2023-06-14T00:09:31;98317.06;;;30.94;26.54
55022;BME280;68328;35.990;-86.756;2023-06-14T00:11:55;98317.16;;;30.96;26.57
55022;BME280;68328;35.990;-86.756;2023-06-14T00:14:20;98310.69;;;30.90;27.33
55022;BME280;68328;35.990;-86.756;2023-06-14T00:16:46;98312.01;;;30.68;26.57
55022;BME280;68328;35.990;-86.756;2023-06-14T00:19:11;98311.07;;;30.64;27.42
55022;BME280;68328;35.990;-86.756;2023-06-14T00:21:37;98317.65;;;30.46;27.04
55022;BME280;68328;35.990;-86.756;2023-06-14T00:24:05;98316.02;;;30.49;27.08
55022;BME280;68328;35.990;-86.756;2023-06-14T00:26:27;98317.10;;;30.73;27.31
55022;BME280;68328;35.990;-86.756;2023-06-14T00:28:54;98324.54;;;30.91;27.60
55022;BME280;68328;35.990;-86.756;2023-06-14T00:31:20;98327.26;;;30.87;27.42
55022;BME280;68328;35.990;-86.756;2023-06-14T00:33:44;98326.29;;;30.68;27.41
55022;BME280;68328;35.990;-86.756;2023-06-14T00:36:11;98327.40;;;30.23;27.80
55022;BME280;68328;35.990;-86.756;2023-06-14T00:38:35;98334.00;;;30.72;27.73
55022;BME280;68328;35.990;-86.756;2023-06-14T00:41:01;98330.64;;;30.64;28.40
55022;BME280;68328;35.990;-86.756;2023-06-14T00:43:27;98326.62;;;30.61;27.69
55022;BME280;68328;35.990;-86.756;2023-06-14T00:45:55;98332.24;;;30.27;27.97
55022;BME280;68328;35.990;-86.756;2023-06-14T00:48:18;98335.35;;;30.70;27.94
55022;BME280;68328;35.990;-86.756;2023-06-14T00:50:44;98337.35;;;30.53;28.17
55022;BME280;68328;35.990;-86.756;2023-06-14T00:53:09;98330.66;;;30.53;28.25
55022;BME280;68328;35.990;-86.756;2023-06-14T00:55:35;98333.88;;;30.49;28.34
55022;BME280;68328;35.990;-86.756;2023-06-14T00:57:59;98337.62;;;30.46;28.32
55022;BME280;68328;35.990;-86.756;2023-06-14T01:00:25;98341.52;;;30.41;28.38
55022;BME280;68328;35.990;-86.756;2023-06-14T01:02:50;98345.14;;;30.10;28.85
55022;BME280;68328;35.990;-86.756;2023-06-14T01:05:16;98343.13;;;30.04;28.57
55022;BME280;68328;35.990;-86.756;2023-06-14T01:07:51;98336.96;;;30.13;29.17
55022;BME280;68328;35.990;-86.756;2023-06-14T01:10:19;98336.53;;;30.32;28.71
55022;BME280;68328;35.990;-86.756;2023-06-14T01:12:39;98334.04;;;30.03;29.31
55022;BME280;68328;35.990;-86.756;2023-06-14T01:15:00;98329.43;;;30.32;29.30
55022;BME280;68328;35.990;-86.756;2023-06-14T01:17:23;98329.11;;;30.13;28.82
55022;BME280;68328;35.990;-86.756;2023-06-14T01:19:48;98327.98;;;30.15;28.74
55022;BME280;68328;35.990;-86.756;2023-06-14T01:22:14;98318.93;;;30.15;28.94
55022;BME280;68328;35.990;-86.756;2023-06-14T01:24:40;98313.18;;;30.14;28.68
55022;BME280;68328;35.990;-86.756;2023-06-14T01:27:06;98315.41;;;30.09;28.82
55022;BME280;68328;35.990;-86.756;2023-06-14T01:29:31;98324.06;;;30.31;29.28
55022;BME280;68328;35.990;-86.756;2023-06-14T01:31:56;98329.00;;;30.22;29.02
55022;BME280;68328;35.990;-86.756;2023-06-14T01:34:23;98333.85;;;29.93;29.14
55022;BME280;68328;35.990;-86.756;2023-06-14T01:36:49;98335.68;;;29.84;29.77
55022;BME280;68328;35.990;-86.756;2023-06-14T01:39:15;98335.13;;;29.87;29.28
55022;BME280;68328;35.990;-86.756;2023-06-14T01:41:40;98335.54;;;29.88;29.42
55022;BME280;68328;35.990;-86.756;2023-06-14T01:44:05;98337.90;;;29.93;29.29
55022;BME280;68328;35.990;-86.756;2023-06-14T01:46:33;98339.13;;;29.87;29.30
55022;BME280;68328;35.990;-86.756;2023-06-14T01:48:57;98340.62;;;30.08;29.31
55022;BME280;68328;35.990;-86.756;2023-06-14T01:51:22;98344.59;;;30.06;29.01
55022;BME280;68328;35.990;-86.756;2023-06-14T01:53:49;98348.94;;;29.77;29.15
55022;BME280;68328;35.990;-86.756;2023-06-14T01:56:16;98355.79;;;29.98;29.27
55022;BME280;68328;35.990;-86.756;2023-06-14T01:58:39;98360.26;;;29.94;29.65
55022;BME280;68328;35.990;-86.756;2023-06-14T02:01:05;98361.45;;;29.95;29.35
55022;BME280;68328;35.990;-86.756;2023-06-14T02:03:30;98360.48;;;29.66;29.54
55022;BME280;68328;35.990;-86.756;2023-06-14T02:05:59;98363.73;;;30.07;29.70
55022;BME280;68328;35.990;-86.756;2023-06-14T02:08:23;98368.36;;;29.79;29.68
55022;BME280;68328;35.990;-86.756;2023-06-14T02:10:49;98372.62;;;29.48;29.54
55022;BME280;68328;35.990;-86.756;2023-06-14T02:13:14;98377.13;;;29.48;29.87
55022;BME280;68328;35.990;-86.756;2023-06-14T02:15:38;98379.76;;;29.95;29.80
55022;BME280;68328;35.990;-86.756;2023-06-14T02:18:06;98380.65;;;29.65;29.84
55022;BME280;68328;35.990;-86.756;2023-06-14T02:20:30;98383.43;;;29.83;29.60
55022;BME280;68328;35.990;-86.756;2023-06-14T02:22:56;98392.86;;;29.74;29.62
55022;BME280;68328;35.990;-86.756;2023-06-14T02:25:24;98396.03;;;29.49;30.33
55022;BME280;68328;35.990;-86.756;2023-06-14T02:27:47;98401.07;;;29.42;29.68
55022;BME280;68328;35.990;-86.756;2023-06-14T02:30:15;98402.50;;;29.60;30.51
55022;BME280;68328;35.990;-86.756;2023-06-14T02:32:38;98401.43;;;29.21;30.07
55022;BME280;68328;35.990;-86.756;2023-06-14T02:35:08;98399.89;;;28.98;30.55
55022;BME280;68328;35.990;-86.756;2023-06-14T02:37:29;98400.67;;;29.24;30.51
55022;BME280;68328;35.990;-86.756;2023-06-14T02:39:56;98409.96;;;29.19;30.40
55022;BME280;68328;35.990;-86.756;2023-06-14T02:42:20;98413.25;;;29.08;31.08
55022;BME280;68328;35.990;-86.756;2023-06-14T02:44:46;98415.11;;;29.00;30.93
55022;BME280;68328;35.990;-86.756;2023-06-14T02:47:13;98414.33;;;28.53;30.85
55022;BME280;68328;35.990;-86.756;2023-06-14T02:49:37;98408.57;;;28.88;30.81
55022;BME280;68328;35.990;-86.756;2023-06-14T02:52:04;98404.42;;;28.62;31.07
55022;BME280;68328;35.990;-86.756;2023-06-14T02:54:28;98405.50;;;28.87;31.10
55022;BME280;68328;35.990;-86.756;2023-06-14T02:56:53;98405.69;;;28.89;30.85
55022;BME280;68328;35.990;-86.756;2023-06-14T02:59:19;98405.41;;;28.85;30.87
55022;BME280;68328;35.990;-86.756;2023-06-14T03:01:45;98402.57;;;28.94;31.08
55022;BME280;68328;35.990;-86.756;2023-06-14T03:04:11;98406.75;;;28.57;31.08
55022;BME280;68328;35.990;-86.756;2023-06-14T03:06:37;98408.85;;;28.22;31.50
55022;BME280;68328;35.990;-86.756;2023-06-14T03:09:01;98406.23;;;28.43;31.32
55022;BME280;68328;35.990;-86.756;2023-06-14T03:11:27;98410.63;;;28.50;31.25
55022;BME280;68328;35.990;-86.756;2023-06-14T03:13:53;98417.13;;;28.55;31.33
55022;BME280;68328;35.990;-86.756;2023-06-14T03:16:19;98425.34;;;28.58;31.33
55022;BME280;68328;35.990;-86.756;2023-06-14T03:18:44;98424.20;;;28.57;31.16
55022;BME280;68328;35.990;-86.756;2023-06-14T03:21:09;98420.66;;;28.21;31.77
55022;BME280;68328;35.990;-86.756;2023-06-14T03:23:36;98429.73;;;27.95;31.75
55022;BME280;68328;35.990;-86.756;2023-06-14T03:26:01;98425.80;;;27.87;32.28
55022;BME280;68328;35.990;-86.756;2023-06-14T03:28:25;98426.96;;;27.88;32.47
55022;BME280;68328;35.990;-86.756;2023-06-14T03:30:51;98430.53;;;27.75;32.18
55022;BME280;68328;35.990;-86.756;2023-06-14T03:33:17;98435.21;;;28.02;32.23
55022;BME280;68328;35.990;-86.756;2023-06-14T03:35:41;98432.91;;;27.88;32.10
55022;BME280;68328;35.990;-86.756;2023-06-14T03:38:06;98429.24;;;27.96;32.03
55022;BME280;68328;35.990;-86.756;2023-06-14T03:40:32;98434.82;;;27.71;32.72
55022;BME280;68328;35.990;-86.756;2023-06-14T03:42:57;98436.09;;;28.19;32.82
55022;BME280;68328;35.990;-86.756;2023-06-14T03:45:23;98429.40;;;28.05;32.34
55022;BME280;68328;35.990;-86.756;2023-06-14T03:47:48;98423.94;;;27.75;32.80
55022;BME280;68328;35.990;-86.756;2023-06-14T03:50:14;98427.38;;;27.71;32.50
55022;BME280;68328;35.990;-86.756;2023-06-14T03:52:39;98424.48;;;27.80;33.17
55022;BME280;68328;35.990;-86.756;2023-06-14T03:55:06;98423.17;;;27.90;32.82
55022;BME280;68328;35.990;-86.756;2023-06-14T03:57:30;98421.49;;;27.86;32.93
55022;BME280;68328;35.990;-86.756;2023-06-14T03:59:55;98414.83;;;27.74;32.75
55022;BME280;68328;35.990;-86.756;2023-06-14T04:02:20;98409.28;;;27.61;33.26
55022;BME280;68328;35.990;-86.756;2023-06-14T04:04:46;98409.02;;;27.63;33.08
55022;BME280;68328;35.990;-86.756;2023-06-14T04:07:12;98405.40;;;27.60;33.17
55022;BME280;68328;35.990;-86.756;2023-06-14T04:09:37;98402.81;;;27.66;33.13
55022;BME280;68328;35.990;-86.756;2023-06-14T04:12:04;98403.61;;;27.71;33.17
55022;BME280;68328;35.990;-86.756;2023-06-14T04:14:28;98401.13;;;27.69;33.36
55022;BME280;68328;35.990;-86.756;2023-06-14T04:16:54;98399.96;;;27.76;33.25
55022;BME280;68328;35.990;-86.756;2023-06-14T04:19:19;98400.04;;;27.94;33.49
55022;BME280;68328;35.990;-86.756;2023-06-14T04:21:45;98399.63;;;27.98;33.73
55022;BME280;68328;35.990;-86.756;2023-06-14T04:24:10;98401.28;;;27.92;33.66
55022;BME280;68328;35.990;-86.756;2023-06-14T04:26:36;98402.14;;;27.44;33.74
55022;BME280;68328;35.990;-86.756;2023-06-14T04:29:02;98399.32;;;27.45;33.75
55022;BME280;68328;35.990;-86.756;2023-06-14T04:31:28;98396.58;;;27.46;33.67
55022;BME280;68328;35.990;-86.756;2023-06-14T04:33:53;98396.26;;;27.28;33.73
55022;BME280;68328;35.990;-86.756;2023-06-14T04:36:19;98394.96;;;27.46;33.96
55022;BME280;68328;35.990;-86.756;2023-06-14T04:38:45;98393.38;;;27.40;34.13
55022;BME280;68328;35.990;-86.756;2023-06-14T04:41:10;98391.38;;;27.40;33.97
55022;BME280;68328;35.990;-86.756;2023-06-14T04:43:36;98391.07;;;27.09;33.92
55022;BME280;68328;35.990;-86.756;2023-06-14T04:46:04;98390.55;;;27.21;34.16
55022;BME280;68328;35.990;-86.756;2023-06-14T04:48:27;98390.82;;;27.39;34.09
55022;BME280;68328;35.990;-86.756;2023-06-14T04:50:52;98386.73;;;27.31;34.51
55022;BME280;68328;35.990;-86.756;2023-06-14T04:53:18;98382.94;;;26.80;34.62
55022;BME280;68328;35.990;-86.756;2023-06-14T04:55:44;98382.98;;;26.83;34.84
55022;BME280;68328;35.990;-86.756;2023-06-14T04:58:09;98378.69;;;26.72;35.08
55022;BME280;68328;35.990;-86.756;2023-06-14T05:00:35;98378.98;;;26.62;35.08
55022;BME280;68328;35.990;-86.756;2023-06-14T05:03:00;98373.20;;;26.40;35.16
55022;BME280;68328;35.990;-86.756;2023-06-14T05:05:25;98370.43;;;26.56;35.10
55022;BME280;68328;35.990;-86.756;2023-06-14T05:07:50;98366.20;;;26.55;35.25
55022;BME280;68328;35.990;-86.756;2023-06-14T05:10:16;98361.64;;;26.28;35.53
55022;BME280;68328;35.990;-86.756;2023-06-14T05:12:41;98358.08;;;26.14;35.68
55022;BME280;68328;35.990;-86.756;2023-06-14T05:15:09;98361.04;;;26.24;35.64
55022;BME280;68328;35.990;-86.756;2023-06-14T05:17:33;98358.33;;;26.29;35.74
55022;BME280;68328;35.990;-86.756;2023-06-14T05:19:59;98354.31;;;26.15;35.77
55022;BME280;68328;35.990;-86.756;2023-06-14T05:22:25;98350.70;;;26.14;35.98
55022;BME280;68328;35.990;-86.756;2023-06-14T05:24:50;98347.77;;;26.37;36.11
55022;BME280;68328;35.990;-86.756;2023-06-14T05:27:16;98343.33;;;26.06;35.84
55022;BME280;68328;35.990;-86.756;2023-06-14T05:29:41;98338.95;;;26.32;35.90
55022;BME280;68328;35.990;-86.756;2023-06-14T05:32:08;98336.27;;;26.55;35.84
55022;BME280;68328;35.990;-86.756;2023-06-14T05:34:33;98331.26;;;26.02;35.89
55022;BME280;68328;35.990;-86.756;2023-06-14T05:36:58;98328.37;;;26.24;36.02
55022;BME280;68328;35.990;-86.756;2023-06-14T05:39:24;98330.20;;;25.99;36.11
55022;BME280;68328;35.990;-86.756;2023-06-14T05:41:49;98331.71;;;26.26;36.01
55022;BME280;68328;35.990;-86.756;2023-06-14T05:44:15;98334.15;;;25.99;36.36
55022;BME280;68328;35.990;-86.756;2023-06-14T05:46:41;98333.85;;;26.26;36.56
55022;BME280;68328;35.990;-86.756;2023-06-14T05:49:05;98328.46;;;26.16;36.63
55022;BME280;68328;35.990;-86.756;2023-06-14T05:51:30;98322.16;;;26.11;36.57
55022;BME280;68328;35.990;-86.756;2023-06-14T05:53:56;98316.78;;;25.44;36.99
55022;BME280;68328;35.990;-86.756;2023-06-14T05:56:21;98311.56;;;25.54;37.11
55022;BME280;68328;35.990;-86.756;2023-06-14T05:58:49;98310.60;;;25.58;37.29
55022;BME280;68328;35.990;-86.756;2023-06-14T06:01:14;98305.85;;;25.60;37.48
55022;BME280;68328;35.990;-86.756;2023-06-14T06:03:39;98302.90;;;25.55;37.32
55022;BME280;68328;35.990;-86.756;2023-06-14T06:06:04;98303.03;;;25.90;37.09
55022;BME280;68328;35.990;-86.756;2023-06-14T06:08:30;98303.36;;;26.09;36.91
55022;BME280;68328;35.990;-86.756;2023-06-14T06:10:56;98309.15;;;25.98;36.75
55022;BME280;68328;35.990;-86.756;2023-06-14T06:13:21;98310.41;;;26.05;36.61
55022;BME280;68328;35.990;-86.756;2023-06-14T06:15:47;98315.91;;;25.81;36.61
55022;BME280;68328;35.990;-86.756;2023-06-14T06:18:12;98315.02;;;26.31;36.61
55022;BME280;68328;35.990;-86.756;2023-06-14T06:20:38;98315.12;;;26.21;36.60
55022;BME280;68328;35.990;-86.756;2023-06-14T06:23:04;98315.66;;;25.87;36.79
55022;BME280;68328;35.990;-86.756;2023-06-14T06:25:30;98329.24;;;25.82;37.07
55022;BME280;68328;35.990;-86.756;2023-06-14T06:27:56;98330.13;;;25.87;36.80
55022;BME280;68328;35.990;-86.756;2023-06-14T06:30:20;98323.52;;;26.00;36.82
55022;BME280;68328;35.990;-86.756;2023-06-14T06:32:46;98324.94;;;25.69;36.97
55022;BME280;68328;35.990;-86.756;2023-06-14T06:35:11;98321.16;;;25.59;37.03
55022;BME280;68328;35.990;-86.756;2023-06-14T06:37:37;98321.17;;;25.20;37.93
55022;BME280;68328;35.990;-86.756;2023-06-14T06:40:03;98321.75;;;25.21;37.83
55022;BME280;68328;35.990;-86.756;2023-06-14T06:42:28;98324.11;;;25.29;37.61
55022;BME280;68328;35.990;-86.756;2023-06-14T06:44:55;98325.89;;;25.36;37.64
55022;BME280;68328;35.990;-86.756;2023-06-14T06:47:19;98323.65;;;25.37;37.49
55022;BME280;68328;35.990;-86.756;2023-06-14T06:49:45;98323.89;;;25.34;37.64
55022;BME280;68328;35.990;-86.756;2023-06-14T06:52:10;98324.17;;;25.34;37.69
55022;BME280;68328;35.990;-86.756;2023-06-14T06:54:35;98328.52;;;25.22;37.72
55022;BME280;68328;35.990;-86.756;2023-06-14T06:57:02;98333.71;;;25.12;37.86
55022;BME280;68328;35.990;-86.756;2023-06-14T06:59:26;98331.57;;;25.16;37.94
55022;BME280;68328;35.990;-86.756;2023-06-14T07:01:53;98334.61;;;25.32;38.01
55022;BME280;68328;35.990;-86.756;2023-06-14T07:04:17;98337.76;;;25.04;38.17
55022;BME280;68328;35.990;-86.756;2023-06-14T07:06:43;98338.99;;;25.14;38.25
55022;BME280;68328;35.990;-86.756;2023-06-14T07:09:09;98342.06;;;25.17;38.24
55022;BME280;68328;35.990;-86.756;2023-06-14T07:11:33;98346.57;;;24.87;38.16
55022;BME280;68328;35.990;-86.756;2023-06-14T07:13:59;98348.47;;;24.90;38.13
55022;BME280;68328;35.990;-86.756;2023-06-14T07:16:25;98350.03;;;24.95;38.49
55022;BME280;68328;35.990;-86.756;2023-06-14T07:18:50;98351.15;;;25.30;38.41
55022;BME280;68328;35.990;-86.756;2023-06-14T07:21:15;98347.77;;;25.07;38.31
55022;BME280;68328;35.990;-86.756;2023-06-14T07:23:43;98349.22;;;25.12;38.35
55022;BME280;68328;35.990;-86.756;2023-06-14T07:26:08;98348.60;;;24.82;38.47
55022;BME280;68328;35.990;-86.756;2023-06-14T07:28:33;98349.01;;;24.91;38.68
55022;BME280;68328;35.990;-86.756;2023-06-14T07:30:59;98345.39;;;24.59;38.95
55022;BME280;68328;35.990;-86.756;2023-06-14T07:33:24;98332.02;;;25.03;38.95
55022;BME280;68328;35.990;-86.756;2023-06-14T07:35:51;98319.65;;;24.82;38.81
55022;BME280;68328;35.990;-86.756;2023-06-14T07:38:16;98318.03;;;24.81;38.84
55022;BME280;68328;35.990;-86.756;2023-06-14T07:40:41;98320.36;;;24.65;39.01
55022;BME280;68328;35.990;-86.756;2023-06-14T07:43:06;98315.82;;;24.77;38.92
55022;BME280;68328;35.990;-86.756;2023-06-14T07:45:32;98314.82;;;24.71;39.03
55022;BME280;68328;35.990;-86.756;2023-06-14T07:47:57;98313.63;;;24.61;39.21
55022;BME280;68328;35.990;-86.756;2023-06-14T07:50:23;98314.71;;;24.40;39.45
55022;BME280;68328;35.990;-86.756;2023-06-14T07:52:48;98312.69;;;24.56;39.68
55022;BME280;68328;35.990;-86.756;2023-06-14T07:55:14;98317.82;;;24.59;39.61
55022;BME280;68328;35.990;-86.756;2023-06-14T07:57:38;98329.75;;;24.21;40.15
55022;BME280;68328;35.990;-86.756;2023-06-14T08:00:04;98327.27;;;23.95;40.48
55022;BME280;68328;35.990;-86.756;2023-06-14T08:02:31;98323.57;;;23.85;40.65
55022;BME280;68328;35.990;-86.756;2023-06-14T08:04:55;98313.55;;;23.99;40.38
55022;BME280;68328;35.990;-86.756;2023-06-14T08:07:20;98302.07;;;24.16;40.16
55022;BME280;68328;35.990;-86.756;2023-06-14T08:09:45;98310.03;;;24.12;40.22
55022;BME280;68328;35.990;-86.756;2023-06-14T08:12:13;98312.02;;;23.89;40.28
55022;BME280;68328;35.990;-86.756;2023-06-14T08:14:38;98294.79;;;24.25;40.09
55022;BME280;68328;35.990;-86.756;2023-06-14T08:17:03;98286.05;;;24.29;40.03
55022;BME280;68328;35.990;-86.756;2023-06-14T08:19:28;98296.01;;;24.03;40.12
55022;BME280;68328;35.990;-86.756;2023-06-14T08:21:53;98292.05;;;24.09;39.98
55022;BME280;68328;35.990;-86.756;2023-06-14T08:24:22;98287.58;;;24.38;39.86
55022;BME280;68328;35.990;-86.756;2023-06-14T08:26:44;98294.62;;;24.25;40.12
55022;BME280;68328;35.990;-86.756;2023-06-14T08:29:09;98294.25;;;24.23;40.04
55022;BME280;68328;35.990;-86.756;2023-06-14T08:31:34;98291.82;;;23.75;40.55
55022;BME280;68328;35.990;-86.756;2023-06-14T08:34:01;98294.65;;;23.94;40.59
55022;BME280;68328;35.990;-86.756;2023-06-14T08:36:26;98285.83;;;23.81;40.79
55022;BME280;68328;35.990;-86.756;2023-06-14T08:38:52;98277.04;;;24.21;40.89
55022;BME280;68328;35.990;-86.756;2023-06-14T08:41:21;98275.07;;;23.63;41.54
55022;BME280;68328;35.990;-86.756;2023-06-14T08:43:41;98274.18;;;23.72;41.09
55022;BME280;68328;35.990;-86.756;2023-06-14T08:46:07;98276.89;;;23.78;41.11
55022;BME280;68328;35.990;-86.756;2023-06-14T08:48:33;98275.85;;;23.77;41.16
55022;BME280;68328;35.990;-86.756;2023-06-14T08:51:00;98263.85;;;23.90;40.97
55022;BME280;68328;35.990;-86.756;2023-06-14T08:53:24;98260.50;;;23.86;40.99
55022;BME280;68328;35.990;-86.756;2023-06-14T08:55:49;98270.52;;;23.81;41.09
55022;BME280;68328;35.990;-86.756;2023-06-14T08:58:14;98274.70;;;24.02;41.11
55022;BME280;68328;35.990;-86.756;2023-06-14T09:00:39;98272.90;;;23.72;41.17
55022;BME280;68328;35.990;-86.756;2023-06-14T09:03:06;98277.97;;;23.77;41.26
55022;BME280;68328;35.990;-86.756;2023-06-14T09:05:30;98276.01;;;23.65;41.31
55022;BME280;68328;35.990;-86.756;2023-06-14T09:07:56;98270.71;;;23.64;41.50
55022;BME280;68328;35.990;-86.756;2023-06-14T09:10:23;98272.26;;;23.95;41.83
55022;BME280;68328;35.990;-86.756;2023-06-14T09:12:47;98271.01;;;23.22;42.32
55022;BME280;68328;35.990;-86.756;2023-06-14T09:15:14;98271.03;;;23.53;42.55
55022;BME280;68328;35.990;-86.756;2023-06-14T09:17:38;98278.44;;;23.26;42.25
55022;BME280;68328;35.990;-86.756;2023-06-14T09:20:03;98270.69;;;23.40;42.48
55022;BME280;68328;35.990;-86.756;2023-06-14T09:22:30;98263.83;;;23.55;42.68
55022;BME280;68328;35.990;-86.756;2023-06-14T09:24:55;98262.06;;;23.51;42.42
55022;BME280;68328;35.990;-86.756;2023-06-14T09:27:19;98255.49;;;23.41;42.21
55022;BME280;68328;35.990;-86.756;2023-06-14T09:29:45;98248.42;;;23.50;42.15
55022;BME280;68328;35.990;-86.756;2023-06-14T09:32:10;98246.99;;;23.14;42.62
55022;BME280;68328;35.990;-86.756;2023-06-14T09:34:36;98252.76;;;22.94;43.54
55022;BME280;68328;35.990;-86.756;2023-06-14T09:37:02;98250.56;;;23.41;43.26
55022;BME280;68328;35.990;-86.756;2023-06-14T09:39:27;98254.01;;;23.23;43.93
55022;BME280;68328;35.990;-86.756;2023-06-14T09:41:52;98250.80;;;22.83;43.48
55022;BME280;68328;35.990;-86.756;2023-06-14T09:44:17;98243.29;;;23.39;43.37
55022;BME280;68328;35.990;-86.756;2023-06-14T09:46:42;98241.23;;;23.40;42.91
55022;BME280;68328;35.990;-86.756;2023-06-14T09:49:08;98242.41;;;23.34;42.47
55022;BME280;68328;35.990;-86.756;2023-06-14T09:51:41;98241.06;;;23.93;42.14
55022;BME280;68328;35.990;-86.756;2023-06-14T09:54:01;98245.11;;;23.73;42.04
55022;BME280;68328;35.990;-86.756;2023-06-14T09:56:27;98244.01;;;23.70;42.25
55022;BME280;68328;35.990;-86.756;2023-06-14T09:58:50;98247.98;;;23.87;42.34
55022;BME280;68328;35.990;-86.756;2023-06-14T10:01:17;98251.35;;;23.36;42.48
55022;BME280;68328;35.990;-86.756;2023-06-14T10:03:42;98246.40;;;23.87;42.47
55022;BME280;68328;35.990;-86.756;2023-06-14T10:06:09;98251.68;;;23.85;42.42
55022;BME280;68328;35.990;-86.756;2023-06-14T10:08:33;98260.01;;;23.48;42.42
55022;BME280;68328;35.990;-86.756;2023-06-14T10:10:58;98270.80;;;24.05;42.42
55022;BME280;68328;35.990;-86.756;2023-06-14T10:13:26;98283.96;;;23.64;42.26
55022;BME280;68328;35.990;-86.756;2023-06-14T10:15:58;98276.76;;;23.77;42.27
55022;BME280;68328;35.990;-86.756;2023-06-14T10:18:28;98280.47;;;23.24;42.93
55022;BME280;68328;35.990;-86.756;2023-06-14T10:20:45;98279.02;;;23.66;43.30
55022;BME280;68328;35.990;-86.756;2023-06-14T10:23:11;98274.56;;;23.38;43.00
55022;BME280;68328;35.990;-86.756;2023-06-14T10:25:33;98281.24;;;23.42;43.22
55022;BME280;68328;35.990;-86.756;2023-06-14T10:28:15;98269.29;;;23.78;43.33
55022;BME280;68328;35.990;-86.756;2023-06-14T10:30:26;98266.29;;;23.58;43.45
55022;BME280;68328;35.990;-86.756;2023-06-14T10:33:03;98271.18;;;23.72;43.30
55022;BME280;68328;35.990;-86.756;2023-06-14T10:35:17;98267.81;;;23.74;43.32
55022;BME280;68328;35.990;-86.756;2023-06-14T10:37:37;98259.84;;;23.83;43.56
55022;BME280;68328;35.990;-86.756;2023-06-14T10:40:03;98256.69;;;23.49;43.43
55022;BME280;68328;35.990;-86.756;2023-06-14T10:42:31;98256.00;;;24.00;43.56
55022;BME280;68328;35.990;-86.756;2023-06-14T10:44:55;98262.50;;;23.61;43.37
55022;BME280;68328;35.990;-86.756;2023-06-14T10:47:25;98266.62;;;24.06;43.57
55022;BME280;68328;35.990;-86.756;2023-06-14T10:49:51;98265.95;;;23.69;43.30
55022;BME280;68328;35.990;-86.756;2023-06-14T10:52:14;98261.03;;;23.74;43.77
55022;BME280;68328;35.990;-86.756;2023-06-14T10:54:37;98265.82;;;23.59;43.75
55022;BME280;68328;35.990;-86.756;2023-06-14T10:57:07;98268.17;;;23.65;44.21
55022;BME280;68328;35.990;-86.756;2023-06-14T10:59:28;98267.28;;;23.83;44.03
55022;BME280;68328;35.990;-86.756;2023-06-14T11:01:58;98264.78;;;23.67;43.78
55022;BME280;68328;35.990;-86.756;2023-06-14T11:04:20;98268.22;;;23.94;43.95
55022;BME280;68328;35.990;-86.756;2023-06-14T11:06:47;98263.66;;;23.56;44.19
55022;BME280;68328;35.990;-86.756;2023-06-14T11:11:37;98255.34;;;23.62;44.30
55022;BME280;68328;35.990;-86.756;2023-06-14T11:14:01;98249.62;;;23.84;43.93
55022;BME280;68328;35.990;-86.756;2023-06-14T11:16:26;98243.67;;;23.89;43.59
55022;BME280;68328;35.990;-86.756;2023-06-14T11:18:51;98243.27;;;24.28;43.33
55022;BME280;68328;35.990;-86.756;2023-06-14T11:21:18;98251.93;;;24.11;43.36
55022;BME280;68328;35.990;-86.756;2023-06-14T11:23:49;98254.82;;;24.47;43.41
55022;BME280;68328;35.990;-86.756;2023-06-14T11:26:08;98255.39;;;24.59;43.25
55022;BME280;68328;35.990;-86.756;2023-06-14T11:28:39;98256.61;;;24.61;43.47
55022;BME280;68328;35.990;-86.756;2023-06-14T11:31:02;98253.13;;;24.71;43.40
55022;BME280;68328;35.990;-86.756;2023-06-14T11:33:24;98244.27;;;24.48;43.46
55022;BME280;68328;35.990;-86.756;2023-06-14T11:35:51;98251.70;;;24.75;43.57
55022;BME280;68328;35.990;-86.756;2023-06-14T11:38:15;98255.31;;;24.91;43.31
55022;BME280;68328;35.990;-86.756;2023-06-14T11:40:42;98259.95;;;24.99;43.30
55022;BME280;68328;35.990;-86.756;2023-06-14T11:43:06;98256.69;;;24.85;43.17
55022;BME280;68328;35.990;-86.756;2023-06-14T11:45:32;98257.67;;;25.17;43.14
55022;BME280;68328;35.990;-86.756;2023-06-14T11:47:59;98256.73;;;25.07;42.92
55022;BME280;68328;35.990;-86.756;2023-06-14T11:50:24;98261.12;;;24.92;42.88
55022;BME280;68328;35.990;-86.756;2023-06-14T11:52:53;98272.23;;;25.24;42.88
55022;BME280;68328;35.990;-86.756;2023-06-14T11:55:14;98280.21;;;25.13;42.78
55022;BME280;68328;35.990;-86.756;2023-06-14T11:57:39;98291.13;;;25.30;42.65
55022;BME280;68328;35.990;-86.756;2023-06-14T12:00:07;98305.19;;;25.62;42.57
55022;BME280;68328;35.990;-86.756;2023-06-14T12:02:31;98312.92;;;25.52;42.60
55022;BME280;68328;35.990;-86.756;2023-06-14T12:05:03;98316.39;;;25.59;42.42
55022;BME280;68328;35.990;-86.756;2023-06-14T12:07:22;98316.30;;;25.71;42.39
55022;BME280;68328;35.990;-86.756;2023-06-14T12:12:13;98309.92;;;25.64;42.47
55022;BME280;68328;35.990;-86.756;2023-06-14T12:14:39;98312.60;;;24.73;43.41
55022;BME280;68328;35.990;-86.756;2023-06-14T12:17:06;98308.86;;;25.15;42.98
55022;BME280;68328;35.990;-86.756;2023-06-14T12:19:28;98303.10;;;25.61;42.74
55022;BME280;68328;35.990;-86.756;2023-06-14T12:21:54;98314.46;;;25.82;42.65
55022;BME280;68328;35.990;-86.756;2023-06-14T12:24:19;98327.07;;;25.87;42.62
55022;BME280;68328;35.990;-86.756;2023-06-14T12:26:45;98318.81;;;25.85;43.08
55022;BME280;68328;35.990;-86.756;2023-06-14T12:29:10;98315.52;;;25.81;42.97
55022;BME280;68328;35.990;-86.756;2023-06-14T12:31:36;98317.22;;;25.69;42.58
55022;BME280;68328;35.990;-86.756;2023-06-14T12:34:01;98319.27;;;25.86;42.70
55022;BME280;68328;35.990;-86.756;2023-06-14T12:36:27;98317.83;;;25.47;43.11